Granby, Connecticut
Current Conditions -  °F | °C
As of 11:51 AM on Sunday 23 Nov 2014 (Local Time) from KBDL Reporting Station
Broken Clouds Broken Clouds  
Wind Chill: 54°   Ceiling: 6500
Heat Index: 54°   Visibility: 10mi
Dew Point: 25°   Wind: 9mph
Humidity: 33%   Direction: 170°S
Pressure: 30.12"   Gusts: NA
Location:  41.95°N, 72.79°W
Report Text: KBDL 231651Z 17008KT 10SM BKN065 BKN110 12/M04 A3012 RMK AO2 SLP200 T01221039
Loading
Personal Weather Stations






























Interactive Weather Map New forecast layout! Learn more

10-Day Weather Forecast

Advertisements
Track Severe Weather on mobile